sensor_id;sensor_type;location;lat;lon;timestamp;pressure;altitude;pressure_sealevel;temperature;humidity
66857;BME280;53766;50.280;19.160;2023-05-03T00:02:13;99093.03;;;18.30;48.14
66857;BME280;53766;50.280;19.160;2023-05-03T00:04:42;99103.69;;;18.30;48.06
66857;BME280;53766;50.280;19.160;2023-05-03T00:07:12;99091.38;;;18.29;48.16
66857;BME280;53766;50.280;19.160;2023-05-03T00:09:40;99091.38;;;18.29;48.17
66857;BME280;53766;50.280;19.160;2023-05-03T00:12:08;99086.03;;;18.29;48.20
66857;BME280;53766;50.280;19.160;2023-05-03T00:14:35;99087.69;;;18.30;47.97
66857;BME280;53766;50.280;19.160;2023-05-03T00:17:03;99086.03;;;18.29;48.00
66857;BME280;53766;50.280;19.160;2023-05-03T00:19:30;99080.69;;;18.29;47.98
66857;BME280;53766;50.280;19.160;2023-05-03T00:22:00;99079.88;;;18.28;48.11
66857;BME280;53766;50.280;19.160;2023-05-03T00:24:27;99079.06;;;18.28;48.09
66857;BME280;53766;50.280;19.160;2023-05-03T00:26:54;99086.03;;;18.29;48.17
66857;BME280;53766;50.280;19.160;2023-05-03T00:29:22;99079.88;;;18.28;48.35
66857;BME280;53766;50.280;19.160;2023-05-03T00:31:49;99086.03;;;18.29;48.14
66857;BME280;53766;50.280;19.160;2023-05-03T00:34:17;99085.22;;;18.28;48.11
66857;BME280;53766;50.280;19.160;2023-05-03T00:36:44;99079.88;;;18.28;48.06
66857;BME280;53766;50.280;19.160;2023-05-03T00:39:12;99081.72;;;18.28;48.14
66857;BME280;53766;50.280;19.160;2023-05-03T00:41:40;99081.72;;;18.28;48.00
66857;BME280;53766;50.280;19.160;2023-05-03T00:44:07;99082.75;;;18.27;48.04
66857;BME280;53766;50.280;19.160;2023-05-03T00:46:35;99079.06;;;18.28;48.05
66857;BME280;53766;50.280;19.160;2023-05-03T00:49:02;99081.91;;;18.26;48.19
66857;BME280;53766;50.280;19.160;2023-05-03T00:51:30;99080.69;;;18.29;48.04
66857;BME280;53766;50.280;19.160;2023-05-03T00:53:58;99076.56;;;18.26;48.22
66857;BME280;53766;50.280;19.160;2023-05-03T00:56:25;99071.25;;;18.26;48.20
66857;BME280;53766;50.280;19.160;2023-05-03T00:58:55;99076.56;;;18.26;48.12
66857;BME280;53766;50.280;19.160;2023-05-03T01:01:23;99080.09;;;18.27;48.19
66857;BME280;53766;50.280;19.160;2023-05-03T01:03:51;99085.41;;;18.27;48.20
66857;BME280;53766;50.280;19.160;2023-05-03T01:09:13;99088.09;;;18.27;48.16
66857;BME280;53766;50.280;19.160;2023-05-03T01:17:28;99089.09;;;18.26;48.13
66857;BME280;53766;50.280;19.160;2023-05-03T01:20:07;99086.41;;;18.26;48.15
66857;BME280;53766;50.280;19.160;2023-05-03T01:25:09;99092.78;;;18.25;47.98
66857;BME280;53766;50.280;19.160;2023-05-03T01:27:39;99084.78;;;18.25;48.12
66857;BME280;53766;50.280;19.160;2023-05-03T01:30:09;99091.75;;;18.26;48.22
66857;BME280;53766;50.280;19.160;2023-05-03T01:32:55;99088.28;;;18.25;48.23
66857;BME280;53766;50.280;19.160;2023-05-03T01:38:04;99100.78;;;18.25;47.95
66857;BME280;53766;50.280;19.160;2023-05-03T01:40:33;99085.78;;;18.24;48.28
66857;BME280;53766;50.280;19.160;2023-05-03T01:43:03;99099.94;;;18.24;48.27
66857;BME280;53766;50.280;19.160;2023-05-03T01:45:30;99098.13;;;18.25;48.25
66857;BME280;53766;50.280;19.160;2023-05-03T01:47:58;99096.44;;;18.24;48.34
66857;BME280;53766;50.280;19.160;2023-05-03T01:50:25;99097.25;;;18.24;48.37
66857;BME280;53766;50.280;19.160;2023-05-03T01:52:53;99099.09;;;18.24;48.18
66857;BME280;53766;50.280;19.160;2023-05-03T01:55:20;99099.09;;;18.24;48.26
66857;BME280;53766;50.280;19.160;2023-05-03T01:57:48;99097.25;;;18.24;48.21
66857;BME280;53766;50.280;19.160;2023-05-03T02:00:15;99100.78;;;18.25;48.20
66857;BME280;53766;50.280;19.160;2023-05-03T02:02:43;99101.78;;;18.24;48.22
66857;BME280;53766;50.280;19.160;2023-05-03T02:05:11;99100.97;;;18.23;48.31
66857;BME280;53766;50.280;19.160;2023-05-03T02:07:38;99097.47;;;18.23;48.27
66857;BME280;53766;50.280;19.160;2023-05-03T02:10:07;99106.28;;;18.23;48.22
66857;BME280;53766;50.280;19.160;2023-05-03T02:12:34;99101.78;;;18.24;48.20
66857;BME280;53766;50.280;19.160;2023-05-03T02:15:02;99096.63;;;18.22;48.17
66857;BME280;53766;50.280;19.160;2023-05-03T02:17:29;99104.44;;;18.24;48.24
66857;BME280;53766;50.280;19.160;2023-05-03T02:19:57;99101.97;;;18.22;48.36
66857;BME280;53766;50.280;19.160;2023-05-03T02:22:24;99097.47;;;18.23;48.37
66857;BME280;53766;50.280;19.160;2023-05-03T02:24:52;99097.47;;;18.23;48.22
66857;BME280;53766;50.280;19.160;2023-05-03T02:27:19;99100.13;;;18.23;48.22
66857;BME280;53766;50.280;19.160;2023-05-03T02:29:46;99095.81;;;18.22;48.38
66857;BME280;53766;50.280;19.160;2023-05-03T02:32:14;99097.47;;;18.23;48.37
66857;BME280;53766;50.280;19.160;2023-05-03T02:34:43;99095.81;;;18.22;48.27
66857;BME280;53766;50.280;19.160;2023-05-03T02:37:11;99092.13;;;18.23;48.24
66857;BME280;53766;50.280;19.160;2023-05-03T02:39:38;99101.13;;;18.22;48.17
66857;BME280;53766;50.280;19.160;2023-05-03T02:42:05;99103.81;;;18.22;48.37
66857;BME280;53766;50.280;19.160;2023-05-03T02:44:34;99104.84;;;18.21;48.25
66857;BME280;53766;50.280;19.160;2023-05-03T02:47:01;99107.28;;;18.22;48.22
66857;BME280;53766;50.280;19.160;2023-05-03T02:49:28;99111.81;;;18.22;48.38
66857;BME280;53766;50.280;19.160;2023-05-03T02:51:56;99105.66;;;18.21;48.15
66857;BME280;53766;50.280;19.160;2023-05-03T02:54:24;99102.16;;;18.21;48.25
66857;BME280;53766;50.280;19.160;2023-05-03T02:56:51;99110.16;;;18.21;48.28
66857;BME280;53766;50.280;19.160;2023-05-03T02:59:19;99108.50;;;18.20;48.26
66857;BME280;53766;50.280;19.160;2023-05-03T03:01:46;99110.16;;;18.21;48.23
66857;BME280;53766;50.280;19.160;2023-05-03T03:04:15;99114.66;;;18.20;48.17
66857;BME280;53766;50.280;19.160;2023-05-03T03:06:42;99111.97;;;18.20;48.22
66857;BME280;53766;50.280;19.160;2023-05-03T03:09:10;99118.16;;;18.21;48.42
66857;BME280;53766;50.280;19.160;2023-05-03T03:11:39;99115.50;;;18.21;48.33
66857;BME280;53766;50.280;19.160;2023-05-03T03:14:06;99114.66;;;18.20;48.35
66857;BME280;53766;50.280;19.160;2023-05-03T03:16:34;99120.81;;;18.21;48.10
66857;BME280;53766;50.280;19.160;2023-05-03T03:19:02;99119.16;;;18.20;48.39
66857;BME280;53766;50.280;19.160;2023-05-03T03:21:29;99113.81;;;18.20;48.27
66857;BME280;53766;50.280;19.160;2023-05-03T03:23:58;99113.81;;;18.20;48.28
66857;BME280;53766;50.280;19.160;2023-05-03T03:26:26;99117.53;;;18.19;48.31
66857;BME280;53766;50.280;19.160;2023-05-03T03:28:53;99118.34;;;18.19;48.35
66857;BME280;53766;50.280;19.160;2023-05-03T03:31:21;99113.00;;;18.19;48.33
66857;BME280;53766;50.280;19.160;2023-05-03T03:33:54;99119.16;;;18.20;48.28
66857;BME280;53766;50.280;19.160;2023-05-03T03:36:22;99113.00;;;18.19;48.26
66857;BME280;53766;50.280;19.160;2023-05-03T03:38:49;99117.53;;;18.19;48.22
66857;BME280;53766;50.280;19.160;2023-05-03T03:41:17;99122.84;;;18.19;48.41
66857;BME280;53766;50.280;19.160;2023-05-03T03:43:44;99118.50;;;18.18;48.42
66857;BME280;53766;50.280;19.160;2023-05-03T03:46:12;99126.34;;;18.19;48.47
66857;BME280;53766;50.280;19.160;2023-05-03T03:48:39;99127.38;;;18.18;48.39
66857;BME280;53766;50.280;19.160;2023-05-03T03:51:07;99135.16;;;18.20;48.39
66857;BME280;53766;50.280;19.160;2023-05-03T03:53:34;99134.34;;;18.19;48.50
66857;BME280;53766;50.280;19.160;2023-05-03T03:56:02;99132.69;;;18.18;48.37
66857;BME280;53766;50.280;19.160;2023-05-03T03:58:30;99137.19;;;18.18;48.32
66857;BME280;53766;50.280;19.160;2023-05-03T04:00:58;99137.19;;;18.18;48.65
66857;BME280;53766;50.280;19.160;2023-05-03T04:03:26;99141.50;;;18.19;48.53
66857;BME280;53766;50.280;19.160;2023-05-03T04:05:54;99144.19;;;18.19;48.25
66857;BME280;53766;50.280;19.160;2023-05-03T04:08:21;99143.34;;;18.18;48.52
66857;BME280;53766;50.280;19.160;2023-05-03T04:10:49;99138.03;;;18.18;48.32
66857;BME280;53766;50.280;19.160;2023-05-03T04:13:17;99142.50;;;18.18;48.29
66857;BME280;53766;50.280;19.160;2023-05-03T04:15:44;99142.50;;;18.18;48.37
66857;BME280;53766;50.280;19.160;2023-05-03T04:18:11;99147.84;;;18.18;48.48
66857;BME280;53766;50.280;19.160;2023-05-03T04:20:39;99151.53;;;18.17;48.27
66857;BME280;53766;50.280;19.160;2023-05-03T04:23:06;99150.50;;;18.18;48.40
66857;BME280;53766;50.280;19.160;2023-05-03T04:25:34;99148.69;;;18.18;48.49
66857;BME280;53766;50.280;19.160;2023-05-03T04:28:03;99154.19;;;18.17;48.48
66857;BME280;53766;50.280;19.160;2023-05-03T04:30:33;99157.69;;;18.17;48.39
66857;BME280;53766;50.280;19.160;2023-05-03T04:33:01;99156.88;;;18.17;48.59
66857;BME280;53766;50.280;19.160;2023-05-03T04:35:30;99157.69;;;18.17;48.42
66857;BME280;53766;50.280;19.160;2023-05-03T04:37:57;99167.53;;;18.17;48.51
66857;BME280;53766;50.280;19.160;2023-05-03T04:40:25;99164.84;;;18.17;48.45
66857;BME280;53766;50.280;19.160;2023-05-03T04:42:53;99162.19;;;18.17;48.47
66857;BME280;53766;50.280;19.160;2023-05-03T04:45:20;99170.19;;;18.17;48.39
66857;BME280;53766;50.280;19.160;2023-05-03T04:47:48;99174.50;;;18.18;48.43
66857;BME280;53766;50.280;19.160;2023-05-03T04:50:15;99170.19;;;18.17;48.51
66857;BME280;53766;50.280;19.160;2023-05-03T04:52:43;99175.53;;;18.17;48.40
66857;BME280;53766;50.280;19.160;2023-05-03T04:55:11;99172.84;;;18.17;48.44
66857;BME280;53766;50.280;19.160;2023-05-03T04:57:38;99179.81;;;18.18;48.29
66857;BME280;53766;50.280;19.160;2023-05-03T05:00:06;99183.53;;;18.17;48.41
66857;BME280;53766;50.280;19.160;2023-05-03T05:02:37;99180.84;;;18.17;48.60
66857;BME280;53766;50.280;19.160;2023-05-03T05:05:05;99188.84;;;18.17;48.33
66857;BME280;53766;50.280;19.160;2023-05-03T05:07:33;99186.19;;;18.17;48.51
66857;BME280;53766;50.280;19.160;2023-05-03T05:10:00;99193.38;;;18.16;48.39
66857;BME280;53766;50.280;19.160;2023-05-03T05:12:28;99196.84;;;18.17;48.56
66857;BME280;53766;50.280;19.160;2023-05-03T05:14:56;99199.53;;;18.17;48.56
66857;BME280;53766;50.280;19.160;2023-05-03T05:17:23;99204.84;;;18.17;48.52
66857;BME280;53766;50.280;19.160;2023-05-03T05:19:53;99202.19;;;18.17;48.55
66857;BME280;53766;50.280;19.160;2023-05-03T05:22:20;99207.53;;;18.17;48.47
66857;BME280;53766;50.280;19.160;2023-05-03T05:24:48;99215.50;;;18.17;48.54
66857;BME280;53766;50.280;19.160;2023-05-03T05:27:15;99210.19;;;18.17;48.55
66857;BME280;53766;50.280;19.160;2023-05-03T05:29:43;99220.84;;;18.17;48.57
66857;BME280;53766;50.280;19.160;2023-05-03T05:32:10;99222.50;;;18.18;48.54
66857;BME280;53766;50.280;19.160;2023-05-03T05:34:39;99221.84;;;18.16;48.58
66857;BME280;53766;50.280;19.160;2023-05-03T05:37:11;99229.84;;;18.16;48.66
66857;BME280;53766;50.280;19.160;2023-05-03T05:39:39;99229.84;;;18.16;48.81
66857;BME280;53766;50.280;19.160;2023-05-03T05:42:06;99234.34;;;18.15;48.61
66857;BME280;53766;50.280;19.160;2023-05-03T05:44:34;99232.50;;;18.16;48.82
66857;BME280;53766;50.280;19.160;2023-05-03T05:47:01;99233.34;;;18.16;48.71
66857;BME280;53766;50.280;19.160;2023-05-03T05:49:29;99239.69;;;18.15;48.82
66857;BME280;53766;50.280;19.160;2023-05-03T05:51:56;99245.00;;;18.15;48.73
66857;BME280;53766;50.280;19.160;2023-05-03T05:54:24;99247.69;;;18.15;48.82
66857;BME280;53766;50.280;19.160;2023-05-03T05:56:52;99244.19;;;18.15;48.70
66857;BME280;53766;50.280;19.160;2023-05-03T05:59:20;99244.19;;;18.15;48.94
66857;BME280;53766;50.280;19.160;2023-05-03T06:01:50;99243.38;;;18.14;48.87
66857;BME280;53766;50.280;19.160;2023-05-03T06:04:17;99249.53;;;18.15;49.00
66857;BME280;53766;50.280;19.160;2023-05-03T06:06:45;99252.19;;;18.15;49.05
66857;BME280;53766;50.280;19.160;2023-05-03T06:09:13;99267.16;;;18.16;49.22
66857;BME280;53766;50.280;19.160;2023-05-03T06:11:50;99262.84;;;18.15;49.01
66857;BME280;53766;50.280;19.160;2023-05-03T06:14:18;99261.00;;;18.15;49.04
66857;BME280;53766;50.280;19.160;2023-05-03T06:16:46;99260.19;;;18.15;48.98
66857;BME280;53766;50.280;19.160;2023-05-03T06:19:14;99263.69;;;18.15;48.90
66857;BME280;53766;50.280;19.160;2023-05-03T06:21:41;99265.53;;;18.15;49.11
66857;BME280;53766;50.280;19.160;2023-05-03T06:24:09;99271.84;;;18.14;48.78
66857;BME280;53766;50.280;19.160;2023-05-03T06:26:36;99266.50;;;18.14;48.82
66857;BME280;53766;50.280;19.160;2023-05-03T06:29:04;99263.03;;;18.13;48.98
66857;BME280;53766;50.280;19.160;2023-05-03T06:31:31;99280.69;;;18.14;48.91
66857;BME280;53766;50.280;19.160;2023-05-03T06:33:59;99271.66;;;18.15;48.82
66857;BME280;53766;50.280;19.160;2023-05-03T06:36:26;99278.84;;;18.15;48.92
66857;BME280;53766;50.280;19.160;2023-05-03T06:38:56;99272.69;;;18.14;48.86
66857;BME280;53766;50.280;19.160;2023-05-03T06:41:23;99277.00;;;18.15;49.09
66857;BME280;53766;50.280;19.160;2023-05-03T06:43:51;99276.19;;;18.15;48.88
66857;BME280;53766;50.280;19.160;2023-05-03T06:46:18;99274.50;;;18.14;48.93
66857;BME280;53766;50.280;19.160;2023-05-03T06:48:46;99277.81;;;18.16;48.90
66857;BME280;53766;50.280;19.160;2023-05-03T06:51:14;99273.69;;;18.13;48.98
66857;BME280;53766;50.280;19.160;2023-05-03T06:53:42;99279.84;;;18.14;48.71
66857;BME280;53766;50.280;19.160;2023-05-03T06:56:09;99281.53;;;18.15;48.93
66857;BME280;53766;50.280;19.160;2023-05-03T06:58:36;99284.19;;;18.15;48.87
66857;BME280;53766;50.280;19.160;2023-05-03T07:01:04;99286.84;;;18.15;48.83
66857;BME280;53766;50.280;19.160;2023-05-03T07:03:31;99293.00;;;18.15;48.79
66857;BME280;53766;50.280;19.160;2023-05-03T07:05:59;99286.84;;;18.15;48.67
66857;BME280;53766;50.280;19.160;2023-05-03T07:08:27;99292.19;;;18.15;48.66
66857;BME280;53766;50.280;19.160;2023-05-03T07:10:54;99297.50;;;18.15;48.78
66857;BME280;53766;50.280;19.160;2023-05-03T07:13:22;99289.50;;;18.15;48.70
66857;BME280;53766;50.280;19.160;2023-05-03T07:15:49;99295.66;;;18.15;48.65
66857;BME280;53766;50.280;19.160;2023-05-03T07:18:17;99303.50;;;18.17;48.68
66857;BME280;53766;50.280;19.160;2023-05-03T07:20:44;99299.16;;;18.16;48.74
66857;BME280;53766;50.280;19.160;2023-05-03T07:23:12;99303.50;;;18.17;48.70
66857;BME280;53766;50.280;19.160;2023-05-03T07:25:41;99298.16;;;18.17;48.64
66857;BME280;53766;50.280;19.160;2023-05-03T07:28:08;99306.16;;;18.17;48.50
66857;BME280;53766;50.280;19.160;2023-05-03T07:30:36;99306.16;;;18.17;48.63
66857;BME280;53766;50.280;19.160;2023-05-03T07:33:03;99303.50;;;18.17;48.72
66857;BME280;53766;50.280;19.160;2023-05-03T07:35:31;99300.81;;;18.17;48.70
66857;BME280;53766;50.280;19.160;2023-05-03T07:37:59;99305.34;;;18.16;48.55
66857;BME280;53766;50.280;19.160;2023-05-03T07:40:26;99308.81;;;18.17;48.59
66857;BME280;53766;50.280;19.160;2023-05-03T07:42:54;99300.81;;;18.17;48.45
66857;BME280;53766;50.280;19.160;2023-05-03T07:45:22;99300.81;;;18.17;48.47
66857;BME280;53766;50.280;19.160;2023-05-03T07:47:49;99300.00;;;18.16;48.46
66857;BME280;53766;50.280;19.160;2023-05-03T07:50:17;99307.81;;;18.18;48.50
66857;BME280;53766;50.280;19.160;2023-05-03T07:52:44;99311.50;;;18.17;49.13
66857;BME280;53766;50.280;19.160;2023-05-03T07:55:12;99311.50;;;18.17;48.97
66857;BME280;53766;50.280;19.160;2023-05-03T07:57:39;99314.16;;;18.17;49.33
66857;BME280;53766;50.280;19.160;2023-05-03T08:00:08;99304.47;;;18.16;49.56
66857;BME280;53766;50.280;19.160;2023-05-03T08:02:37;99304.47;;;18.16;49.62
66857;BME280;53766;50.280;19.160;2023-05-03T08:05:05;99312.47;;;18.16;49.47
66857;BME280;53766;50.280;19.160;2023-05-03T08:07:33;99311.50;;;18.17;49.89
66857;BME280;53766;50.280;19.160;2023-05-03T08:10:02;99308.81;;;18.17;49.71
66857;BME280;53766;50.280;19.160;2023-05-03T08:12:30;99308.81;;;18.17;49.60
66857;BME280;53766;50.280;19.160;2023-05-03T08:14:58;99311.50;;;18.17;49.95
66857;BME280;53766;50.280;19.160;2023-05-03T08:17:26;99314.97;;;18.17;50.17
66857;BME280;53766;50.280;19.160;2023-05-03T08:19:54;99316.81;;;18.17;50.49
66857;BME280;53766;50.280;19.160;2023-05-03T08:22:22;99315.16;;;18.16;50.60
66857;BME280;53766;50.280;19.160;2023-05-03T08:24:52;99315.16;;;18.16;50.60
66857;BME280;53766;50.280;19.160;2023-05-03T08:27:22;99312.47;;;18.16;50.61
66857;BME280;53766;50.280;19.160;2023-05-03T08:29:53;99314.34;;;18.15;50.83
66857;BME280;53766;50.280;19.160;2023-05-03T08:32:20;99302.03;;;18.14;50.72
66857;BME280;53766;50.280;19.160;2023-05-03T08:34:48;99309.16;;;18.14;50.81
66857;BME280;53766;50.280;19.160;2023-05-03T08:37:16;99319.19;;;18.12;50.86
66857;BME280;53766;50.280;19.160;2023-05-03T08:39:44;99313.84;;;18.12;51.04
66857;BME280;53766;50.280;19.160;2023-05-03T08:42:13;99319.19;;;18.12;51.14
66857;BME280;53766;50.280;19.160;2023-05-03T08:44:50;99321.84;;;18.12;50.92
66857;BME280;53766;50.280;19.160;2023-05-03T08:47:18;99322.50;;;18.14;50.32
66857;BME280;53766;50.280;19.160;2023-05-03T08:49:46;99322.50;;;18.14;50.41
66857;BME280;53766;50.280;19.160;2023-05-03T08:52:14;99333.16;;;18.14;50.30
66857;BME280;53766;50.280;19.160;2023-05-03T08:54:47;99340.16;;;18.15;49.91
66857;BME280;53766;50.280;19.160;2023-05-03T08:57:16;99339.34;;;18.14;50.03
66857;BME280;53766;50.280;19.160;2023-05-03T08:59:48;99341.00;;;18.15;50.13
66857;BME280;53766;50.280;19.160;2023-05-03T09:02:16;99343.66;;;18.15;50.07
66857;BME280;53766;50.280;19.160;2023-05-03T09:04:45;99352.47;;;18.16;50.16
66857;BME280;53766;50.280;19.160;2023-05-03T09:07:12;99353.50;;;18.15;49.99
66857;BME280;53766;50.280;19.160;2023-05-03T09:09:42;99357.81;;;18.16;50.07
66857;BME280;53766;50.280;19.160;2023-05-03T09:12:33;99348.16;;;18.15;49.99
66857;BME280;53766;50.280;19.160;2023-05-03T09:15:02;99357.81;;;18.16;50.61
66857;BME280;53766;50.280;19.160;2023-05-03T09:17:32;99357.00;;;18.15;50.17
66857;BME280;53766;50.280;19.160;2023-05-03T09:20:00;99358.84;;;18.15;50.28
66857;BME280;53766;50.280;19.160;2023-05-03T09:22:30;99359.66;;;18.15;50.19
66857;BME280;53766;50.280;19.160;2023-05-03T09:25:00;99363.13;;;18.16;50.12
66857;BME280;53766;50.280;19.160;2023-05-03T09:27:27;99362.31;;;18.15;50.70
66857;BME280;53766;50.280;19.160;2023-05-03T09:29:55;99361.31;;;18.16;50.54
66857;BME280;53766;50.280;19.160;2023-05-03T09:32:22;99357.81;;;18.16;50.12
66857;BME280;53766;50.280;19.160;2023-05-03T09:35:07;99364.81;;;18.17;50.23
66857;BME280;53766;50.280;19.160;2023-05-03T09:37:36;99365.63;;;18.17;50.21
66857;BME280;53766;50.280;19.160;2023-05-03T09:40:06;99362.97;;;18.17;50.31
66857;BME280;53766;50.280;19.160;2023-05-03T09:42:34;99370.97;;;18.17;50.29
66857;BME280;53766;50.280;19.160;2023-05-03T09:45:03;99366.47;;;18.18;50.25
66857;BME280;53766;50.280;19.160;2023-05-03T09:47:37;99370.16;;;18.17;50.57
66857;BME280;53766;50.280;19.160;2023-05-03T09:50:16;99379.13;;;18.16;51.04
66857;BME280;53766;50.280;19.160;2023-05-03T09:52:43;99361.50;;;18.15;50.51
66857;BME280;53766;50.280;19.160;2023-05-03T09:55:15;99382.00;;;18.14;50.42
66857;BME280;53766;50.280;19.160;2023-05-03T09:57:46;99373.16;;;18.14;50.54
66857;BME280;53766;50.280;19.160;2023-05-03T10:00:14;99373.16;;;18.14;50.48
66857;BME280;53766;50.280;19.160;2023-05-03T10:02:43;99367.00;;;18.13;50.58
66857;BME280;53766;50.280;19.160;2023-05-03T10:05:11;99369.50;;;18.15;50.63
66857;BME280;53766;50.280;19.160;2023-05-03T10:07:41;99367.81;;;18.14;50.64
66857;BME280;53766;50.280;19.160;2023-05-03T10:10:10;99369.50;;;18.15;50.66
66857;BME280;53766;50.280;19.160;2023-05-03T10:12:37;99372.16;;;18.15;50.70
66857;BME280;53766;50.280;19.160;2023-05-03T10:15:06;99366.84;;;18.15;51.04
66857;BME280;53766;50.280;19.160;2023-05-03T10:17:38;99366.84;;;18.15;51.01
66857;BME280;53766;50.280;19.160;2023-05-03T10:20:15;99366.84;;;18.15;51.02
66857;BME280;53766;50.280;19.160;2023-05-03T10:25:30;99359.66;;;18.15;50.91
66857;BME280;53766;50.280;19.160;2023-05-03T10:30:31;99364.81;;;18.17;50.97
66857;BME280;53766;50.280;19.160;2023-05-03T10:35:39;99361.97;;;18.18;51.22
66857;BME280;53766;50.280;19.160;2023-05-03T10:38:21;99367.09;;;18.20;51.73
66857;BME280;53766;50.280;19.160;2023-05-03T10:40:49;99366.13;;;18.21;51.73
66857;BME280;53766;50.280;19.160;2023-05-03T10:45:57;99352.59;;;18.22;51.58
66857;BME280;53766;50.280;19.160;2023-05-03T10:48:26;99359.75;;;18.22;51.57
66857;BME280;53766;50.280;19.160;2023-05-03T10:50:56;99372.09;;;18.23;51.51
66857;BME280;53766;50.280;19.160;2023-05-03T10:56:10;99369.44;;;18.23;51.66
66857;BME280;53766;50.280;19.160;2023-05-03T10:58:46;99370.44;;;18.22;51.73
66857;BME280;53766;50.280;19.160;2023-05-03T11:01:16;99373.91;;;18.22;51.63
66857;BME280;53766;50.280;19.160;2023-05-03T11:06:42;99366.75;;;18.23;52.02
66857;BME280;53766;50.280;19.160;2023-05-03T11:09:14;99365.75;;;18.24;51.83
66857;BME280;53766;50.280;19.160;2023-05-03T11:11:43;99364.91;;;18.23;51.94
66857;BME280;53766;50.280;19.160;2023-05-03T11:14:12;99375.59;;;18.23;51.94
66857;BME280;53766;50.280;19.160;2023-05-03T11:16:40;99373.75;;;18.24;51.89
66857;BME280;53766;50.280;19.160;2023-05-03T11:19:14;99362.25;;;18.23;51.85
66857;BME280;53766;50.280;19.160;2023-05-03T11:21:42;99364.91;;;18.23;51.77
66857;BME280;53766;50.280;19.160;2023-05-03T11:24:11;99365.75;;;18.24;51.82
66857;BME280;53766;50.280;19.160;2023-05-03T11:26:39;99371.06;;;18.24;51.91
66857;BME280;53766;50.280;19.160;2023-05-03T11:29:09;99371.06;;;18.24;51.97
66857;BME280;53766;50.280;19.160;2023-05-03T11:31:36;99367.41;;;18.25;51.92
66857;BME280;53766;50.280;19.160;2023-05-03T11:34:12;99364.75;;;18.25;51.85
66857;BME280;53766;50.280;19.160;2023-05-03T11:36:42;99366.41;;;18.26;52.19
66857;BME280;53766;50.280;19.160;2023-05-03T11:39:13;99368.06;;;18.27;52.14
66857;BME280;53766;50.280;19.160;2023-05-03T11:41:40;99361.72;;;18.28;52.00
66857;BME280;53766;50.280;19.160;2023-05-03T11:44:08;99367.03;;;18.28;52.04
66857;BME280;53766;50.280;19.160;2023-05-03T11:46:44;99366.03;;;18.29;52.17
66857;BME280;53766;50.280;19.160;2023-05-03T11:49:17;99365.03;;;18.30;52.08
66857;BME280;53766;50.280;19.160;2023-05-03T11:51:44;99366.66;;;18.31;52.08
66857;BME280;53766;50.280;19.160;2023-05-03T11:54:16;99362.34;;;18.30;51.93
66857;BME280;53766;50.280;19.160;2023-05-03T11:56:54;99359.69;;;18.30;51.87
66857;BME280;53766;50.280;19.160;2023-05-03T11:59:37;99356.84;;;18.32;52.01
66857;BME280;53766;50.280;19.160;2023-05-03T12:02:06;99357.69;;;18.32;52.23
66857;BME280;53766;50.280;19.160;2023-05-03T12:04:36;99357.69;;;18.32;52.83
66857;BME280;53766;50.280;19.160;2023-05-03T12:07:09;99357.69;;;18.32;52.66
66857;BME280;53766;50.280;19.160;2023-05-03T12:09:39;99356.00;;;18.31;52.73
66857;BME280;53766;50.280;19.160;2023-05-03T12:12:17;99359.69;;;18.30;52.83
66857;BME280;53766;50.280;19.160;2023-05-03T12:14:56;99358.66;;;18.31;53.58
66857;BME280;53766;50.280;19.160;2023-05-03T12:17:38;99352.34;;;18.32;53.78
66857;BME280;53766;50.280;19.160;2023-05-03T12:20:15;99353.97;;;18.33;53.87
66857;BME280;53766;50.280;19.160;2023-05-03T12:22:54;99355.66;;;18.34;54.17
66857;BME280;53766;50.280;19.160;2023-05-03T12:25:25;99349.31;;;18.35;54.55
66857;BME280;53766;50.280;19.160;2023-05-03T12:28:00;99357.31;;;18.35;54.67
66857;BME280;53766;50.280;19.160;2023-05-03T12:30:46;99356.31;;;18.36;55.01
66857;BME280;53766;50.280;19.160;2023-05-03T12:33:14;99352.63;;;18.37;54.91
66857;BME280;53766;50.280;19.160;2023-05-03T12:35:43;99342.16;;;18.36;55.00
66857;BME280;53766;50.280;19.160;2023-05-03T12:38:14;99348.31;;;18.36;55.47
66857;BME280;53766;50.280;19.160;2023-05-03T12:40:44;99347.50;;;18.36;55.20
66857;BME280;53766;50.280;19.160;2023-05-03T12:43:12;99339.28;;;18.37;55.48
66857;BME280;53766;50.280;19.160;2023-05-03T12:45:39;99339.28;;;18.37;55.44
66857;BME280;53766;50.280;19.160;2023-05-03T12:48:07;99339.28;;;18.37;55.58
66857;BME280;53766;50.280;19.160;2023-05-03T12:50:35;99335.63;;;18.38;55.49
66857;BME280;53766;50.280;19.160;2023-05-03T12:53:05;99335.63;;;18.38;55.40
66857;BME280;53766;50.280;19.160;2023-05-03T12:55:37;99339.09;;;18.39;55.50
66857;BME280;53766;50.280;19.160;2023-05-03T12:58:10;99335.63;;;18.38;55.61
66857;BME280;53766;50.280;19.160;2023-05-03T13:00:41;99339.94;;;18.39;55.73
66857;BME280;53766;50.280;19.160;2023-05-03T13:03:31;99337.25;;;18.39;56.01
66857;BME280;53766;50.280;19.160;2023-05-03T13:06:01;99338.94;;;18.40;56.46
66857;BME280;53766;50.280;19.160;2023-05-03T13:08:40;99333.22;;;18.43;55.61
66857;BME280;53766;50.280;19.160;2023-05-03T13:11:16;99334.91;;;18.44;55.93
66857;BME280;53766;50.280;19.160;2023-05-03T13:13:46;99340.84;;;18.46;56.02
66857;BME280;53766;50.280;19.160;2023-05-03T13:16:13;99327.50;;;18.46;55.88
66857;BME280;53766;50.280;19.160;2023-05-03T13:18:41;99339.03;;;18.47;55.98
66857;BME280;53766;50.280;19.160;2023-05-03T13:21:09;99331.84;;;18.47;55.99
66857;BME280;53766;50.280;19.160;2023-05-03T13:23:37;99327.50;;;18.46;55.75
66857;BME280;53766;50.280;19.160;2023-05-03T13:26:04;99332.84;;;18.46;55.80
66857;BME280;53766;50.280;19.160;2023-05-03T13:28:33;99330.19;;;18.46;55.57
66857;BME280;53766;50.280;19.160;2023-05-03T13:31:00;99323.19;;;18.45;55.39